sensor_id;sensor_type;location;lat;lon;timestamp;P1;durP1;ratioP1;P2;durP2;ratioP2
813;SDS011;389;48.710;9.392;2023-12-29T00:01:20;2.50;;;2.30;;
813;SDS011;389;48.710;9.392;2023-12-29T00:03:46;2.47;;;2.27;;
813;SDS011;389;48.710;9.392;2023-12-29T00:06:12;2.50;;;2.30;;
813;SDS011;389;48.710;9.392;2023-12-29T00:08:37;2.23;;;2.03;;
813;SDS011;389;48.710;9.392;2023-12-29T00:11:03;2.37;;;2.17;;
813;SDS011;389;48.710;9.392;2023-12-29T00:13:28;2.30;;;2.10;;
813;SDS011;389;48.710;9.392;2023-12-29T00:15:54;2.37;;;1.90;;
813;SDS011;389;48.710;9.392;2023-12-29T00:18:20;2.63;;;2.20;;
813;SDS011;389;48.710;9.392;2023-12-29T00:20:47;2.83;;;2.20;;
813;SDS011;389;48.710;9.392;2023-12-29T00:23:12;2.70;;;2.50;;
813;SDS011;389;48.710;9.392;2023-12-29T00:25:38;2.73;;;2.40;;
813;SDS011;389;48.710;9.392;2023-12-29T00:28:04;3.27;;;2.80;;
813;SDS011;389;48.710;9.392;2023-12-29T00:30:30;2.70;;;2.47;;
813;SDS011;389;48.710;9.392;2023-12-29T00:32:56;2.23;;;2.10;;
813;SDS011;389;48.710;9.392;2023-12-29T00:35:22;3.20;;;2.40;;
813;SDS011;389;48.710;9.392;2023-12-29T00:37:49;2.50;;;2.10;;
813;SDS011;389;48.710;9.392;2023-12-29T00:40:15;4.27;;;2.30;;
813;SDS011;389;48.710;9.392;2023-12-29T00:42:40;3.00;;;2.50;;
813;SDS011;389;48.710;9.392;2023-12-29T00:45:06;2.90;;;2.23;;
813;SDS011;389;48.710;9.392;2023-12-29T00:47:32;4.10;;;2.30;;
813;SDS011;389;48.710;9.392;2023-12-29T00:49:58;3.33;;;2.93;;
813;SDS011;389;48.710;9.392;2023-12-29T00:52:24;2.90;;;2.30;;
813;SDS011;389;48.710;9.392;2023-12-29T00:54:49;2.87;;;2.50;;
813;SDS011;389;48.710;9.392;2023-12-29T00:57:15;2.87;;;2.63;;
813;SDS011;389;48.710;9.392;2023-12-29T00:59:40;3.90;;;3.00;;
813;SDS011;389;48.710;9.392;2023-12-29T01:02:06;3.23;;;2.93;;
813;SDS011;389;48.710;9.392;2023-12-29T01:04:32;3.90;;;2.77;;
813;SDS011;389;48.710;9.392;2023-12-29T01:06:58;2.37;;;2.17;;
813;SDS011;389;48.710;9.392;2023-12-29T01:09:25;3.07;;;2.53;;
813;SDS011;389;48.710;9.392;2023-12-29T01:11:51;3.00;;;2.70;;
813;SDS011;389;48.710;9.392;2023-12-29T01:14:17;2.50;;;2.30;;
813;SDS011;389;48.710;9.392;2023-12-29T01:16:42;2.67;;;2.47;;
813;SDS011;389;48.710;9.392;2023-12-29T01:19:08;3.20;;;2.70;;
813;SDS011;389;48.710;9.392;2023-12-29T01:21:33;3.20;;;2.60;;
813;SDS011;389;48.710;9.392;2023-12-29T01:24:02;2.83;;;2.63;;
813;SDS011;389;48.710;9.392;2023-12-29T01:26:36;3.20;;;2.90;;
813;SDS011;389;48.710;9.392;2023-12-29T01:29:03;3.53;;;2.60;;
813;SDS011;389;48.710;9.392;2023-12-29T01:31:32;3.00;;;2.27;;
813;SDS011;389;48.710;9.392;2023-12-29T01:33:58;5.67;;;2.73;;
813;SDS011;389;48.710;9.392;2023-12-29T01:36:24;3.13;;;2.53;;
813;SDS011;389;48.710;9.392;2023-12-29T01:38:49;3.60;;;2.50;;
813;SDS011;389;48.710;9.392;2023-12-29T01:41:15;2.50;;;2.23;;
813;SDS011;389;48.710;9.392;2023-12-29T01:46:22;3.10;;;2.80;;
813;SDS011;389;48.710;9.392;2023-12-29T01:48:53;3.63;;;2.73;;
813;SDS011;389;48.710;9.392;2023-12-29T01:51:19;3.87;;;2.57;;
813;SDS011;389;48.710;9.392;2023-12-29T01:53:48;5.70;;;3.10;;
813;SDS011;389;48.710;9.392;2023-12-29T01:56:14;3.33;;;2.70;;
813;SDS011;389;48.710;9.392;2023-12-29T01:58:40;3.17;;;2.87;;
813;SDS011;389;48.710;9.392;2023-12-29T02:01:06;3.37;;;3.07;;
813;SDS011;389;48.710;9.392;2023-12-29T02:03:37;3.80;;;2.93;;
813;SDS011;389;48.710;9.392;2023-12-29T02:06:02;3.27;;;3.00;;
813;SDS011;389;48.710;9.392;2023-12-29T02:08:29;3.53;;;3.23;;
813;SDS011;389;48.710;9.392;2023-12-29T02:10:55;6.93;;;3.63;;
813;SDS011;389;48.710;9.392;2023-12-29T02:13:21;4.37;;;3.53;;
813;SDS011;389;48.710;9.392;2023-12-29T02:15:47;5.50;;;3.77;;
813;SDS011;389;48.710;9.392;2023-12-29T02:18:19;3.97;;;2.87;;
813;SDS011;389;48.710;9.392;2023-12-29T02:20:47;3.17;;;2.87;;
813;SDS011;389;48.710;9.392;2023-12-29T02:23:13;4.80;;;4.00;;
813;SDS011;389;48.710;9.392;2023-12-29T02:25:39;3.80;;;3.40;;
813;SDS011;389;48.710;9.392;2023-12-29T02:30:45;5.30;;;3.80;;
813;SDS011;389;48.710;9.392;2023-12-29T02:33:19;3.53;;;3.03;;
813;SDS011;389;48.710;9.392;2023-12-29T02:35:47;3.07;;;2.70;;
813;SDS011;389;48.710;9.392;2023-12-29T02:38:16;3.50;;;3.20;;
813;SDS011;389;48.710;9.392;2023-12-29T02:40:42;3.50;;;3.20;;
813;SDS011;389;48.710;9.392;2023-12-29T02:43:08;4.77;;;3.13;;
813;SDS011;389;48.710;9.392;2023-12-29T02:45:34;3.43;;;3.13;;
813;SDS011;389;48.710;9.392;2023-12-29T02:48:00;3.83;;;3.50;;
813;SDS011;389;48.710;9.392;2023-12-29T02:50:25;3.80;;;3.20;;
813;SDS011;389;48.710;9.392;2023-12-29T02:52:51;4.43;;;3.23;;
813;SDS011;389;48.710;9.392;2023-12-29T02:55:16;4.03;;;3.30;;
813;SDS011;389;48.710;9.392;2023-12-29T02:57:42;4.60;;;3.70;;
813;SDS011;389;48.710;9.392;2023-12-29T03:00:08;3.50;;;3.20;;
813;SDS011;389;48.710;9.392;2023-12-29T03:02:33;3.73;;;2.93;;
813;SDS011;389;48.710;9.392;2023-12-29T03:04:59;4.93;;;3.67;;
813;SDS011;389;48.710;9.392;2023-12-29T03:07:25;4.27;;;3.57;;
813;SDS011;389;48.710;9.392;2023-12-29T03:09:50;3.30;;;3.00;;
813;SDS011;389;48.710;9.392;2023-12-29T03:12:16;3.57;;;3.27;;
813;SDS011;389;48.710;9.392;2023-12-29T03:14:42;3.53;;;3.10;;
813;SDS011;389;48.710;9.392;2023-12-29T03:17:09;4.07;;;3.60;;
813;SDS011;389;48.710;9.392;2023-12-29T03:19:35;4.27;;;3.20;;
813;SDS011;389;48.710;9.392;2023-12-29T03:22:01;4.47;;;3.77;;
813;SDS011;389;48.710;9.392;2023-12-29T03:24:27;3.93;;;3.53;;
813;SDS011;389;48.710;9.392;2023-12-29T03:26:54;5.27;;;3.80;;
813;SDS011;389;48.710;9.392;2023-12-29T03:29:19;3.80;;;3.40;;
813;SDS011;389;48.710;9.392;2023-12-29T03:31:45;5.10;;;3.33;;
813;SDS011;389;48.710;9.392;2023-12-29T03:34:11;4.27;;;3.57;;
813;SDS011;389;48.710;9.392;2023-12-29T03:36:36;4.13;;;3.30;;
813;SDS011;389;48.710;9.392;2023-12-29T03:39:02;4.53;;;3.30;;
813;SDS011;389;48.710;9.392;2023-12-29T03:41:28;4.07;;;3.50;;
813;SDS011;389;48.710;9.392;2023-12-29T03:43:53;3.20;;;2.90;;
813;SDS011;389;48.710;9.392;2023-12-29T03:46:21;6.17;;;3.67;;
813;SDS011;389;48.710;9.392;2023-12-29T03:48:47;4.07;;;3.17;;
813;SDS011;389;48.710;9.392;2023-12-29T03:51:13;3.83;;;3.37;;
813;SDS011;389;48.710;9.392;2023-12-29T03:53:43;3.53;;;2.80;;
813;SDS011;389;48.710;9.392;2023-12-29T03:56:13;4.93;;;3.40;;
813;SDS011;389;48.710;9.392;2023-12-29T03:58:41;3.60;;;2.93;;
813;SDS011;389;48.710;9.392;2023-12-29T04:01:14;3.03;;;2.73;;
813;SDS011;389;48.710;9.392;2023-12-29T04:03:40;2.70;;;2.50;;
813;SDS011;389;48.710;9.392;2023-12-29T04:06:06;4.37;;;2.97;;
813;SDS011;389;48.710;9.392;2023-12-29T04:08:33;4.17;;;3.50;;
813;SDS011;389;48.710;9.392;2023-12-29T04:11:02;3.90;;;2.57;;
813;SDS011;389;48.710;9.392;2023-12-29T04:13:29;3.97;;;2.57;;
813;SDS011;389;48.710;9.392;2023-12-29T04:15:55;3.33;;;2.60;;
813;SDS011;389;48.710;9.392;2023-12-29T04:18:23;3.60;;;3.13;;
813;SDS011;389;48.710;9.392;2023-12-29T04:20:49;3.03;;;2.73;;
813;SDS011;389;48.710;9.392;2023-12-29T04:23:15;2.60;;;2.40;;
813;SDS011;389;48.710;9.392;2023-12-29T04:25:41;3.70;;;3.00;;
813;SDS011;389;48.710;9.392;2023-12-29T04:28:07;4.97;;;3.20;;
813;SDS011;389;48.710;9.392;2023-12-29T04:30:32;3.23;;;2.90;;
813;SDS011;389;48.710;9.392;2023-12-29T04:32:58;4.43;;;3.20;;
813;SDS011;389;48.710;9.392;2023-12-29T04:35:24;4.30;;;3.00;;
813;SDS011;389;48.710;9.392;2023-12-29T04:37:49;3.30;;;2.83;;
813;SDS011;389;48.710;9.392;2023-12-29T04:40:16;3.17;;;2.80;;
813;SDS011;389;48.710;9.392;2023-12-29T04:42:42;3.27;;;2.90;;
813;SDS011;389;48.710;9.392;2023-12-29T04:45:08;4.13;;;3.30;;
813;SDS011;389;48.710;9.392;2023-12-29T04:47:35;2.90;;;2.30;;
813;SDS011;389;48.710;9.392;2023-12-29T04:50:01;3.20;;;2.90;;
813;SDS011;389;48.710;9.392;2023-12-29T04:52:27;2.93;;;2.63;;
813;SDS011;389;48.710;9.392;2023-12-29T04:54:52;4.80;;;3.10;;
813;SDS011;389;48.710;9.392;2023-12-29T04:57:18;3.60;;;3.00;;
813;SDS011;389;48.710;9.392;2023-12-29T04:59:43;2.90;;;2.70;;
813;SDS011;389;48.710;9.392;2023-12-29T05:02:09;4.30;;;3.20;;
813;SDS011;389;48.710;9.392;2023-12-29T05:04:34;3.00;;;2.70;;
813;SDS011;389;48.710;9.392;2023-12-29T05:07:00;3.37;;;2.80;;
813;SDS011;389;48.710;9.392;2023-12-29T05:09:25;3.30;;;2.80;;
813;SDS011;389;48.710;9.392;2023-12-29T05:11:51;5.20;;;2.83;;
813;SDS011;389;48.710;9.392;2023-12-29T05:14:16;3.27;;;2.70;;
813;SDS011;389;48.710;9.392;2023-12-29T05:16:42;3.07;;;2.70;;
813;SDS011;389;48.710;9.392;2023-12-29T05:19:08;3.37;;;3.07;;
813;SDS011;389;48.710;9.392;2023-12-29T05:21:33;3.40;;;2.63;;
813;SDS011;389;48.710;9.392;2023-12-29T05:23:59;3.27;;;2.60;;
813;SDS011;389;48.710;9.392;2023-12-29T05:26:25;3.13;;;2.83;;
813;SDS011;389;48.710;9.392;2023-12-29T05:28:51;3.47;;;3.17;;
813;SDS011;389;48.710;9.392;2023-12-29T05:31:16;3.40;;;3.00;;
813;SDS011;389;48.710;9.392;2023-12-29T05:33:44;4.20;;;3.07;;
813;SDS011;389;48.710;9.392;2023-12-29T05:36:10;4.13;;;3.20;;
813;SDS011;389;48.710;9.392;2023-12-29T05:38:36;3.50;;;3.17;;
813;SDS011;389;48.710;9.392;2023-12-29T05:41:03;3.80;;;2.80;;
813;SDS011;389;48.710;9.392;2023-12-29T05:43:30;3.70;;;3.33;;
813;SDS011;389;48.710;9.392;2023-12-29T05:45:57;3.90;;;3.50;;
813;SDS011;389;48.710;9.392;2023-12-29T05:48:23;5.10;;;3.37;;
813;SDS011;389;48.710;9.392;2023-12-29T05:50:49;4.33;;;3.10;;
813;SDS011;389;48.710;9.392;2023-12-29T05:53:15;6.70;;;3.90;;
813;SDS011;389;48.710;9.392;2023-12-29T05:55:40;5.60;;;4.77;;
813;SDS011;389;48.710;9.392;2023-12-29T05:58:06;10.70;;;7.00;;
813;SDS011;389;48.710;9.392;2023-12-29T06:00:32;9.20;;;6.70;;
813;SDS011;389;48.710;9.392;2023-12-29T06:02:57;8.20;;;5.43;;
813;SDS011;389;48.710;9.392;2023-12-29T06:05:24;8.90;;;5.70;;
813;SDS011;389;48.710;9.392;2023-12-29T06:07:49;6.13;;;5.00;;
813;SDS011;389;48.710;9.392;2023-12-29T06:10:15;6.07;;;4.67;;
813;SDS011;389;48.710;9.392;2023-12-29T06:12:41;6.00;;;4.50;;
813;SDS011;389;48.710;9.392;2023-12-29T06:15:07;5.13;;;4.03;;
813;SDS011;389;48.710;9.392;2023-12-29T06:17:33;4.40;;;3.77;;
813;SDS011;389;48.710;9.392;2023-12-29T06:20:00;4.27;;;3.57;;
813;SDS011;389;48.710;9.392;2023-12-29T06:22:27;4.07;;;3.67;;
813;SDS011;389;48.710;9.392;2023-12-29T06:24:52;5.27;;;4.00;;
813;SDS011;389;48.710;9.392;2023-12-29T06:27:18;6.80;;;3.87;;
813;SDS011;389;48.710;9.392;2023-12-29T06:29:43;4.00;;;3.60;;
813;SDS011;389;48.710;9.392;2023-12-29T06:32:09;4.67;;;3.97;;
813;SDS011;389;48.710;9.392;2023-12-29T06:34:35;5.50;;;3.30;;
813;SDS011;389;48.710;9.392;2023-12-29T06:37:00;4.60;;;3.23;;
813;SDS011;389;48.710;9.392;2023-12-29T06:39:26;4.33;;;3.90;;
813;SDS011;389;48.710;9.392;2023-12-29T06:41:51;4.67;;;3.67;;
813;SDS011;389;48.710;9.392;2023-12-29T06:44:17;4.27;;;3.80;;
813;SDS011;389;48.710;9.392;2023-12-29T06:46:42;4.53;;;4.07;;
813;SDS011;389;48.710;9.392;2023-12-29T06:49:08;4.47;;;4.00;;
813;SDS011;389;48.710;9.392;2023-12-29T06:51:34;4.87;;;4.20;;
813;SDS011;389;48.710;9.392;2023-12-29T06:54:00;4.30;;;3.77;;
813;SDS011;389;48.710;9.392;2023-12-29T06:56:26;5.77;;;4.40;;
813;SDS011;389;48.710;9.392;2023-12-29T06:58:52;5.50;;;4.00;;
813;SDS011;389;48.710;9.392;2023-12-29T07:01:17;5.63;;;3.80;;
813;SDS011;389;48.710;9.392;2023-12-29T07:03:43;6.70;;;4.10;;
813;SDS011;389;48.710;9.392;2023-12-29T07:06:09;4.20;;;3.10;;
813;SDS011;389;48.710;9.392;2023-12-29T07:08:35;4.87;;;3.83;;
813;SDS011;389;48.710;9.392;2023-12-29T07:11:01;3.20;;;2.90;;
813;SDS011;389;48.710;9.392;2023-12-29T07:13:27;5.30;;;3.37;;
813;SDS011;389;48.710;9.392;2023-12-29T07:15:53;4.17;;;3.43;;
813;SDS011;389;48.710;9.392;2023-12-29T07:18:19;3.23;;;2.90;;
813;SDS011;389;48.710;9.392;2023-12-29T07:20:44;4.07;;;3.30;;
813;SDS011;389;48.710;9.392;2023-12-29T07:23:10;3.30;;;2.90;;
813;SDS011;389;48.710;9.392;2023-12-29T07:25:35;4.33;;;3.37;;
813;SDS011;389;48.710;9.392;2023-12-29T07:28:01;3.73;;;2.77;;
813;SDS011;389;48.710;9.392;2023-12-29T07:30:26;5.00;;;3.70;;
813;SDS011;389;48.710;9.392;2023-12-29T07:37:58;7.50;;;4.27;;
813;SDS011;389;48.710;9.392;2023-12-29T07:40:24;5.57;;;3.50;;
813;SDS011;389;48.710;9.392;2023-12-29T07:42:52;5.90;;;3.57;;
813;SDS011;389;48.710;9.392;2023-12-29T07:45:18;8.00;;;3.70;;
813;SDS011;389;48.710;9.392;2023-12-29T07:47:44;3.90;;;3.27;;
813;SDS011;389;48.710;9.392;2023-12-29T07:50:09;7.03;;;4.23;;
813;SDS011;389;48.710;9.392;2023-12-29T07:52:35;3.93;;;3.47;;
813;SDS011;389;48.710;9.392;2023-12-29T07:55:00;4.60;;;3.50;;
813;SDS011;389;48.710;9.392;2023-12-29T07:57:26;4.63;;;3.80;;
813;SDS011;389;48.710;9.392;2023-12-29T07:59:52;6.20;;;3.50;;
813;SDS011;389;48.710;9.392;2023-12-29T08:02:17;5.97;;;4.10;;
813;SDS011;389;48.710;9.392;2023-12-29T08:04:43;6.00;;;4.10;;
813;SDS011;389;48.710;9.392;2023-12-29T08:07:11;6.17;;;4.83;;
813;SDS011;389;48.710;9.392;2023-12-29T08:09:37;10.90;;;6.87;;
813;SDS011;389;48.710;9.392;2023-12-29T08:12:03;9.27;;;6.53;;
813;SDS011;389;48.710;9.392;2023-12-29T08:14:29;9.80;;;6.50;;
813;SDS011;389;48.710;9.392;2023-12-29T08:16:55;6.90;;;5.30;;
813;SDS011;389;48.710;9.392;2023-12-29T08:19:22;10.80;;;6.20;;
813;SDS011;389;48.710;9.392;2023-12-29T08:21:47;8.63;;;5.63;;
813;SDS011;389;48.710;9.392;2023-12-29T08:24:13;10.30;;;6.80;;
813;SDS011;389;48.710;9.392;2023-12-29T08:26:46;8.87;;;6.03;;
813;SDS011;389;48.710;9.392;2023-12-29T08:29:13;9.47;;;7.07;;
813;SDS011;389;48.710;9.392;2023-12-29T08:31:38;8.30;;;6.20;;
813;SDS011;389;48.710;9.392;2023-12-29T08:34:04;8.90;;;5.50;;
813;SDS011;389;48.710;9.392;2023-12-29T08:36:30;8.50;;;5.60;;
813;SDS011;389;48.710;9.392;2023-12-29T08:38:55;6.20;;;5.60;;
813;SDS011;389;48.710;9.392;2023-12-29T09:00:15;6.20;;;4.40;;
813;SDS011;389;48.710;9.392;2023-12-29T09:02:40;5.50;;;3.63;;
813;SDS011;389;48.710;9.392;2023-12-29T09:05:06;5.00;;;3.47;;
813;SDS011;389;48.710;9.392;2023-12-29T09:07:32;3.93;;;3.27;;
813;SDS011;389;48.710;9.392;2023-12-29T09:09:58;3.23;;;2.93;;
813;SDS011;389;48.710;9.392;2023-12-29T09:12:26;4.43;;;3.77;;
813;SDS011;389;48.710;9.392;2023-12-29T09:14:52;4.60;;;3.23;;
813;SDS011;389;48.710;9.392;2023-12-29T09:17:18;3.50;;;3.20;;
813;SDS011;389;48.710;9.392;2023-12-29T09:19:44;3.50;;;3.20;;
813;SDS011;389;48.710;9.392;2023-12-29T09:22:09;3.40;;;3.10;;
813;SDS011;389;48.710;9.392;2023-12-29T09:24:35;3.70;;;3.30;;
813;SDS011;389;48.710;9.392;2023-12-29T09:27:01;3.33;;;2.60;;
813;SDS011;389;48.710;9.392;2023-12-29T09:29:27;2.70;;;2.50;;
813;SDS011;389;48.710;9.392;2023-12-29T09:31:52;2.70;;;2.50;;
813;SDS011;389;48.710;9.392;2023-12-29T09:34:18;6.83;;;4.77;;
813;SDS011;389;48.710;9.392;2023-12-29T09:36:44;2.63;;;2.43;;
813;SDS011;389;48.710;9.392;2023-12-29T09:39:10;2.40;;;2.20;;
813;SDS011;389;48.710;9.392;2023-12-29T09:41:35;2.57;;;2.37;;
813;SDS011;389;48.710;9.392;2023-12-29T09:44:07;3.47;;;2.40;;
813;SDS011;389;48.710;9.392;2023-12-29T09:46:39;2.90;;;2.60;;
813;SDS011;389;48.710;9.392;2023-12-29T09:49:06;2.37;;;2.17;;
813;SDS011;389;48.710;9.392;2023-12-29T09:51:34;2.03;;;1.83;;
813;SDS011;389;48.710;9.392;2023-12-29T09:54:01;1.90;;;1.80;;
813;SDS011;389;48.710;9.392;2023-12-29T09:56:28;1.80;;;1.70;;
813;SDS011;389;48.710;9.392;2023-12-29T09:58:54;2.13;;;1.93;;
813;SDS011;389;48.710;9.392;2023-12-29T10:01:21;3.80;;;2.90;;
813;SDS011;389;48.710;9.392;2023-12-29T10:03:54;2.53;;;1.97;;
813;SDS011;389;48.710;9.392;2023-12-29T10:06:20;2.00;;;1.90;;
813;SDS011;389;48.710;9.392;2023-12-29T10:08:51;1.80;;;1.70;;
813;SDS011;389;48.710;9.392;2023-12-29T10:11:18;2.50;;;2.00;;
813;SDS011;389;48.710;9.392;2023-12-29T10:13:49;2.20;;;1.80;;
813;SDS011;389;48.710;9.392;2023-12-29T10:19:00;2.10;;;1.90;;
813;SDS011;389;48.710;9.392;2023-12-29T10:24:51;2.20;;;1.90;;
813;SDS011;389;48.710;9.392;2023-12-29T10:27:18;2.30;;;1.60;;
813;SDS011;389;48.710;9.392;2023-12-29T10:29:50;1.80;;;1.70;;
813;SDS011;389;48.710;9.392;2023-12-29T10:32:18;1.70;;;1.60;;
813;SDS011;389;48.710;9.392;2023-12-29T10:34:43;1.80;;;1.70;;
813;SDS011;389;48.710;9.392;2023-12-29T10:37:09;1.80;;;1.70;;
813;SDS011;389;48.710;9.392;2023-12-29T10:39:56;2.10;;;1.90;;
813;SDS011;389;48.710;9.392;2023-12-29T10:42:22;2.13;;;1.93;;
813;SDS011;389;48.710;9.392;2023-12-29T10:45:04;1.63;;;1.53;;
813;SDS011;389;48.710;9.392;2023-12-29T10:47:34;1.83;;;1.60;;
813;SDS011;389;48.710;9.392;2023-12-29T10:50:03;1.37;;;1.27;;
813;SDS011;389;48.710;9.392;2023-12-29T10:52:31;1.30;;;1.20;;
813;SDS011;389;48.710;9.392;2023-12-29T10:57:36;1.37;;;1.27;;
813;SDS011;389;48.710;9.392;2023-12-29T11:00:03;1.53;;;1.43;;
813;SDS011;389;48.710;9.392;2023-12-29T11:02:31;2.10;;;1.67;;
813;SDS011;389;48.710;9.392;2023-12-29T11:05:09;1.40;;;1.30;;
813;SDS011;389;48.710;9.392;2023-12-29T11:07:39;1.77;;;1.17;;
813;SDS011;389;48.710;9.392;2023-12-29T11:10:07;2.03;;;1.30;;
813;SDS011;389;48.710;9.392;2023-12-29T11:12:38;1.40;;;1.30;;
813;SDS011;389;48.710;9.392;2023-12-29T11:15:04;1.37;;;1.27;;
813;SDS011;389;48.710;9.392;2023-12-29T11:17:33;1.60;;;1.50;;
813;SDS011;389;48.710;9.392;2023-12-29T11:20:00;1.37;;;1.27;;
813;SDS011;389;48.710;9.392;2023-12-29T11:22:28;1.50;;;1.40;;
813;SDS011;389;48.710;9.392;2023-12-29T11:24:55;1.07;;;1.03;;
813;SDS011;389;48.710;9.392;2023-12-29T11:27:23;1.90;;;1.60;;
813;SDS011;389;48.710;9.392;2023-12-29T11:29:55;1.83;;;1.40;;
813;SDS011;389;48.710;9.392;2023-12-29T11:32:34;1.47;;;1.27;;
813;SDS011;389;48.710;9.392;2023-12-29T11:35:55;1.53;;;1.20;;
813;SDS011;389;48.710;9.392;2023-12-29T11:38:29;2.10;;;1.90;;
813;SDS011;389;48.710;9.392;2023-12-29T11:41:30;2.03;;;1.43;;
813;SDS011;389;48.710;9.392;2023-12-29T11:44:08;2.00;;;1.40;;
813;SDS011;389;48.710;9.392;2023-12-29T11:49:08;1.87;;;1.40;;
813;SDS011;389;48.710;9.392;2023-12-29T11:51:35;1.70;;;1.60;;
813;SDS011;389;48.710;9.392;2023-12-29T11:54:04;1.13;;;1.13;;
813;SDS011;389;48.710;9.392;2023-12-29T11:56:34;3.13;;;1.30;;
813;SDS011;389;48.710;9.392;2023-12-29T11:59:20;2.27;;;1.80;;
813;SDS011;389;48.710;9.392;2023-12-29T12:07:02;1.50;;;1.40;;
813;SDS011;389;48.710;9.392;2023-12-29T12:09:28;1.60;;;1.50;;
813;SDS011;389;48.710;9.392;2023-12-29T12:11:54;1.30;;;1.20;;
813;SDS011;389;48.710;9.392;2023-12-29T12:17:12;6.80;;;4.90;;
813;SDS011;389;48.710;9.392;2023-12-29T12:19:51;18.63;;;12.67;;
813;SDS011;389;48.710;9.392;2023-12-29T12:22:21;4.00;;;2.93;;
813;SDS011;389;48.710;9.392;2023-12-29T12:24:50;1.80;;;1.70;;
813;SDS011;389;48.710;9.392;2023-12-29T12:27:22;4.33;;;3.90;;
813;SDS011;389;48.710;9.392;2023-12-29T12:29:52;9.20;;;8.17;;
813;SDS011;389;48.710;9.392;2023-12-29T12:32:20;9.17;;;7.93;;
813;SDS011;389;48.710;9.392;2023-12-29T12:34:45;11.30;;;9.60;;
813;SDS011;389;48.710;9.392;2023-12-29T12:37:11;14.93;;;13.27;;
813;SDS011;389;48.710;9.392;2023-12-29T12:39:40;6.70;;;6.00;;
813;SDS011;389;48.710;9.392;2023-12-29T12:42:06;3.40;;;3.10;;
813;SDS011;389;48.710;9.392;2023-12-29T12:44:31;4.33;;;3.93;;
813;SDS011;389;48.710;9.392;2023-12-29T12:46:58;2.80;;;2.60;;
813;SDS011;389;48.710;9.392;2023-12-29T12:49:26;4.40;;;4.00;;
813;SDS011;389;48.710;9.392;2023-12-29T12:51:54;2.73;;;2.37;;
813;SDS011;389;48.710;9.392;2023-12-29T12:54:20;2.90;;;2.70;;
813;SDS011;389;48.710;9.392;2023-12-29T12:56:46;1.77;;;1.67;;
813;SDS011;389;48.710;9.392;2023-12-29T12:59:12;2.13;;;1.30;;
813;SDS011;389;48.710;9.392;2023-12-29T13:01:39;3.77;;;3.47;;
813;SDS011;389;48.710;9.392;2023-12-29T13:04:05;1.67;;;1.50;;
813;SDS011;389;48.710;9.392;2023-12-29T13:06:32;1.60;;;1.50;;
813;SDS011;389;48.710;9.392;2023-12-29T13:08:58;1.80;;;1.70;;
813;SDS011;389;48.710;9.392;2023-12-29T13:11:26;1.70;;;1.60;;
813;SDS011;389;48.710;9.392;2023-12-29T13:13:52;1.57;;;1.47;;
813;SDS011;389;48.710;9.392;2023-12-29T13:16:35;2.27;;;1.57;;
813;SDS011;389;48.710;9.392;2023-12-29T13:21:52;1.40;;;1.30;;
813;SDS011;389;48.710;9.392;2023-12-29T13:24:21;1.27;;;1.13;;
813;SDS011;389;48.710;9.392;2023-12-29T13:26:47;1.67;;;1.57;;
813;SDS011;389;48.710;9.392;2023-12-29T13:29:17;2.77;;;1.43;;
813;SDS011;389;48.710;9.392;2023-12-29T13:31:50;1.50;;;1.40;;
813;SDS011;389;48.710;9.392;2023-12-29T13:34:24;1.63;;;1.50;;
813;SDS011;389;48.710;9.392;2023-12-29T13:37:05;2.23;;;1.70;;
813;SDS011;389;48.710;9.392;2023-12-29T13:39:42;3.10;;;1.67;;
813;SDS011;389;48.710;9.392;2023-12-29T13:42:29;1.50;;;1.40;;
813;SDS011;389;48.710;9.392;2023-12-29T13:44:57;1.43;;;1.33;;
813;SDS011;389;48.710;9.392;2023-12-29T13:47:24;1.30;;;1.20;;
813;SDS011;389;48.710;9.392;2023-12-29T13:49:50;2.00;;;1.43;;
813;SDS011;389;48.710;9.392;2023-12-29T13:52:16;2.03;;;1.70;;
813;SDS011;389;48.710;9.392;2023-12-29T13:54:43;2.00;;;1.83;;
813;SDS011;389;48.710;9.392;2023-12-29T13:57:09;1.30;;;1.20;;
813;SDS011;389;48.710;9.392;2023-12-29T13:59:35;1.83;;;1.30;;
813;SDS011;389;48.710;9.392;2023-12-29T14:05:15;1.70;;;1.60;;
813;SDS011;389;48.710;9.392;2023-12-29T14:10:33;1.50;;;1.40;;
813;SDS011;389;48.710;9.392;2023-12-29T14:13:12;1.40;;;1.30;;
813;SDS011;389;48.710;9.392;2023-12-29T14:15:39;1.47;;;1.37;;
813;SDS011;389;48.710;9.392;2023-12-29T14:20:38;1.37;;;1.27;;
813;SDS011;389;48.710;9.392;2023-12-29T14:23:05;11.90;;;5.60;;
813;SDS011;389;48.710;9.392;2023-12-29T14:25:34;26.83;;;10.90;;
813;SDS011;389;48.710;9.392;2023-12-29T14:28:02;5.10;;;4.60;;
813;SDS011;389;48.710;9.392;2023-12-29T14:30:48;2.20;;;2.00;;
813;SDS011;389;48.710;9.392;2023-12-29T14:33:13;5.70;;;4.33;;
813;SDS011;389;48.710;9.392;2023-12-29T14:35:39;2.37;;;2.17;;
813;SDS011;389;48.710;9.392;2023-12-29T14:38:05;1.40;;;1.30;;
813;SDS011;389;48.710;9.392;2023-12-29T14:40:30;2.93;;;1.57;;
813;SDS011;389;48.710;9.392;2023-12-29T14:42:59;1.70;;;1.60;;
813;SDS011;389;48.710;9.392;2023-12-29T14:45:25;2.77;;;1.63;;
813;SDS011;389;48.710;9.392;2023-12-29T14:47:54;1.70;;;1.60;;
813;SDS011;389;48.710;9.392;2023-12-29T14:50:20;8.60;;;3.13;;
813;SDS011;389;48.710;9.392;2023-12-29T14:52:45;2.40;;;1.60;;
813;SDS011;389;48.710;9.392;2023-12-29T14:55:11;1.77;;;1.67;;
813;SDS011;389;48.710;9.392;2023-12-29T14:57:36;4.70;;;3.10;;
813;SDS011;389;48.710;9.392;2023-12-29T15:00:02;5.17;;;3.00;;
813;SDS011;389;48.710;9.392;2023-12-29T15:02:29;15.03;;;7.60;;
813;SDS011;389;48.710;9.392;2023-12-29T15:04:55;12.60;;;6.27;;
813;SDS011;389;48.710;9.392;2023-12-29T15:07:20;2.67;;;2.43;;
813;SDS011;389;48.710;9.392;2023-12-29T15:09:48;9.17;;;4.70;;
813;SDS011;389;48.710;9.392;2023-12-29T15:12:14;13.37;;;8.60;;
813;SDS011;389;48.710;9.392;2023-12-29T15:14:40;3.90;;;3.50;;
813;SDS011;389;48.710;9.392;2023-12-29T15:17:06;2.20;;;1.83;;
813;SDS011;389;48.710;9.392;2023-12-29T15:19:32;2.47;;;2.27;;
813;SDS011;389;48.710;9.392;2023-12-29T15:21:57;2.20;;;1.73;;
813;SDS011;389;48.710;9.392;2023-12-29T15:24:23;2.47;;;1.87;;
813;SDS011;389;48.710;9.392;2023-12-29T15:26:48;2.50;;;2.30;;
813;SDS011;389;48.710;9.392;2023-12-29T15:29:14;2.70;;;2.50;;
813;SDS011;389;48.710;9.392;2023-12-29T15:31:43;3.20;;;2.90;;
813;SDS011;389;48.710;9.392;2023-12-29T15:34:09;8.73;;;5.33;;
813;SDS011;389;48.710;9.392;2023-12-29T15:36:35;4.93;;;3.73;;
813;SDS011;389;48.710;9.392;2023-12-29T15:39:00;9.50;;;2.57;;
813;SDS011;389;48.710;9.392;2023-12-29T15:41:26;2.73;;;2.30;;
813;SDS011;389;48.710;9.392;2023-12-29T15:43:51;2.87;;;2.67;;
813;SDS011;389;48.710;9.392;2023-12-29T15:46:17;2.70;;;2.47;;
813;SDS011;389;48.710;9.392;2023-12-29T15:48:47;2.90;;;2.50;;
813;SDS011;389;48.710;9.392;2023-12-29T15:51:12;3.97;;;2.60;;
813;SDS011;389;48.710;9.392;2023-12-29T15:53:38;2.00;;;1.90;;
813;SDS011;389;48.710;9.392;2023-12-29T15:56:07;2.67;;;2.47;;
813;SDS011;389;48.710;9.392;2023-12-29T15:58:33;3.33;;;2.40;;
813;SDS011;389;48.710;9.392;2023-12-29T16:00:58;2.10;;;2.00;;
813;SDS011;389;48.710;9.392;2023-12-29T16:03:24;2.10;;;1.87;;
813;SDS011;389;48.710;9.392;2023-12-29T16:05:50;2.73;;;2.50;;
813;SDS011;389;48.710;9.392;2023-12-29T16:08:15;2.30;;;2.10;;
813;SDS011;389;48.710;9.392;2023-12-29T16:10:41;3.20;;;2.90;;
813;SDS011;389;48.710;9.392;2023-12-29T16:13:07;2.40;;;2.13;;
813;SDS011;389;48.710;9.392;2023-12-29T16:15:33;3.87;;;2.70;;
813;SDS011;389;48.710;9.392;2023-12-29T16:17:58;3.63;;;2.47;;
813;SDS011;389;48.710;9.392;2023-12-29T16:20:25;2.77;;;2.20;;
813;SDS011;389;48.710;9.392;2023-12-29T16:22:51;3.23;;;2.43;;
813;SDS011;389;48.710;9.392;2023-12-29T16:25:18;2.77;;;2.57;;
813;SDS011;389;48.710;9.392;2023-12-29T16:27:44;5.40;;;3.00;;
813;SDS011;389;48.710;9.392;2023-12-29T16:30:10;5.13;;;3.33;;
813;SDS011;389;48.710;9.392;2023-12-29T16:32:36;4.43;;;3.80;;
813;SDS011;389;48.710;9.392;2023-12-29T16:35:02;5.60;;;4.13;;
813;SDS011;389;48.710;9.392;2023-12-29T16:37:27;9.70;;;7.10;;
813;SDS011;389;48.710;9.392;2023-12-29T16:39:54;6.50;;;5.30;;
813;SDS011;389;48.710;9.392;2023-12-29T16:42:20;5.10;;;4.03;;
813;SDS011;389;48.710;9.392;2023-12-29T16:44:46;4.70;;;3.20;;